Time;durP1;ratioP1;P1;durP2;ratioP2;P2;SDS_P1;SDS_P2;PMS_P1;PMS_P2;Temp;Humidity;BMP_temperature;BMP_pressure;BME280_temperature;BME280_humidity;BME280_pressure;Samples;Min_cycle;Max_cycle;Signal;HPM_P1;HPM_P2
2022/07/13 00:01:18;;;;;;;1.17;1.00;;;19.20;5.50;;;;;;5112148;27;34166;-75
2022/07/13 00:03:44;;;;;;;1.38;1.10;;;19.20;5.70;;;;;;5112183;27;34143;-76
2022/07/13 00:06:10;;;;;;;1.00;0.90;;;19.20;5.60;;;;;;5111739;27;36023;-75
2022/07/13 00:08:36;;;;;;;4.13;1.10;;;19.20;5.70;;;;;;5111752;27;34260;-75
2022/07/13 00:11:02;;;;;;;4.00;1.02;;;19.30;5.70;;;;;;5129338;27;34534;-75
2022/07/13 00:13:28;;;;;;;3.92;1.00;;;19.30;5.80;;;;;;5129080;27;34416;-75
2022/07/13 00:15:54;;;;;;;1.50;1.00;;;19.30;5.70;;;;;;5111917;27;36763;-75
2022/07/13 00:18:20;;;;;;;1.10;1.00;;;19.30;5.70;;;;;;5129168;27;34069;-75
2022/07/13 00:20:47;;;;;;;1.42;1.30;;;19.30;5.70;;;;;;5111519;27;34018;-75
2022/07/13 00:23:13;;;;;;;1.95;1.00;;;19.30;5.70;;;;;;5127923;27;34419;-75
2022/07/13 00:25:38;;;;;;;1.00;1.00;;;19.30;5.70;;;;;;5128643;27;35738;-75
2022/07/13 00:28:04;;;;;;;3.30;0.82;;;19.30;5.70;;;;;;5128898;27;34141;-75
2022/07/13 00:30:30;;;;;;;1.30;1.20;;;19.30;5.70;;;;;;5128473;27;34146;-75
2022/07/13 00:32:56;;;;;;;1.10;1.00;;;19.30;5.70;;;;;;5128767;27;34408;-75
2022/07/13 00:35:22;;;;;;;1.00;1.00;;;19.30;5.80;;;;;;5111497;27;35564;-75
2022/07/13 00:37:48;;;;;;;0.85;0.85;;;19.30;5.80;;;;;;5147026;27;34044;-75
2022/07/13 00:40:14;;;;;;;1.65;1.20;;;19.30;5.90;;;;;;5111753;27;34283;-75
2022/07/13 00:42:40;;;;;;;1.48;1.13;;;19.30;5.90;;;;;;5128395;27;34184;-75
2022/07/13 00:45:07;;;;;;;1.20;1.10;;;19.20;6.00;;;;;;5146919;27;34345;-75
2022/07/13 00:47:33;;;;;;;1.25;1.00;;;19.20;6.10;;;;;;5147333;27;34269;-75
2022/07/13 00:50:02;;;;;;;1.13;1.00;;;19.30;6.20;;;;;;5111552;27;34229;-75
2022/07/13 00:52:30;;;;;;;0.80;0.80;;;19.20;6.40;;;;;;5128664;27;34211;-75
2022/07/13 00:54:56;;;;;;;1.60;1.08;;;19.20;6.20;;;;;;5110920;27;35619;-75
2022/07/13 00:57:25;;;;;;;3.83;1.00;;;19.20;6.20;;;;;;5128525;27;34214;-75
2022/07/13 00:59:51;;;;;;;1.30;1.20;;;19.10;6.30;;;;;;5128172;27;34244;-76
2022/07/13 01:02:17;;;;;;;1.10;1.00;;;19.10;6.40;;;;;;5146108;27;34397;-75
2022/07/13 01:04:43;;;;;;;1.10;1.00;;;19.10;6.40;;;;;;5145257;27;35597;-75
2022/07/13 01:07:09;;;;;;;1.45;1.20;;;18.90;6.50;;;;;;5128057;27;34055;-75
2022/07/13 01:09:35;;;;;;;1.73;0.85;;;18.90;6.70;;;;;;5041186;28;34252;-75
2022/07/13 01:12:01;;;;;;;1.20;1.10;;;18.80;6.80;;;;;;5110723;27;34019;-75
2022/07/13 01:14:29;;;;;;;2.00;0.88;;;18.80;6.90;;;;;;5127375;27;36630;-75
2022/07/13 01:16:55;;;;;;;1.45;1.20;;;18.70;7.00;;;;;;5127807;27;34114;-75
2022/07/13 01:19:22;;;;;;;1.10;1.00;;;18.60;7.10;;;;;;5145215;27;34228;-75
2022/07/13 01:21:54;;;;;;;1.38;1.00;;;18.50;7.20;;;;;;5110778;27;34276;-75
2022/07/13 01:24:20;;;;;;;0.95;0.90;;;18.50;8.00;;;;;;5127709;27;35804;-75
2022/07/13 01:26:46;;;;;;;1.90;0.98;;;18.40;7.50;;;;;;5093076;28;34077;-75
2022/07/13 01:29:11;;;;;;;3.63;1.20;;;18.30;7.60;;;;;;5110425;27;34352;-75
2022/07/13 01:31:39;;;;;;;1.15;1.00;;;18.30;7.80;;;;;;5127742;27;34415;-75
2022/07/13 01:34:06;;;;;;;1.17;1.10;;;18.20;7.90;;;;;;5126847;27;35621;-75
2022/07/13 01:36:34;;;;;;;0.90;0.80;;;18.20;7.90;;;;;;5109689;27;34058;-75
2022/07/13 01:39:01;;;;;;;1.90;0.98;;;18.20;8.20;;;;;;5041231;28;34214;-76
2022/07/13 01:41:29;;;;;;;1.85;1.05;;;18.20;8.00;;;;;;5127530;27;34096;-75
2022/07/13 01:43:57;;;;;;;3.38;1.20;;;18.20;8.10;;;;;;5127638;27;35942;-76
2022/07/13 01:46:24;;;;;;;1.20;1.10;;;18.20;8.00;;;;;;5110342;27;34172;-75
2022/07/13 01:48:50;;;;;;;1.10;1.00;;;18.20;8.10;;;;;;5144573;27;34304;-75
2022/07/13 01:51:16;;;;;;;0.90;0.85;;;18.20;8.00;;;;;;5109651;27;34103;-76
2022/07/13 01:53:43;;;;;;;1.15;1.05;;;18.20;8.00;;;;;;5109690;27;34270;-75
2022/07/13 01:56:08;;;;;;;1.30;1.00;;;18.20;8.00;;;;;;5144586;27;34456;-76
2022/07/13 01:58:34;;;;;;;2.00;1.08;;;18.20;8.10;;;;;;5109758;27;34137;-75
2022/07/13 02:01:01;;;;;;;1.25;1.00;;;18.20;8.10;;;;;;5144519;27;34403;-76
2022/07/13 02:03:31;;;;;;;1.30;1.20;;;18.20;8.20;;;;;;5144258;27;35774;-76
2022/07/13 02:05:57;;;;;;;2.25;1.10;;;18.20;8.70;;;;;;5040949;28;34208;-75
2022/07/13 02:08:23;;;;;;;1.77;0.95;;;18.20;8.10;;;;;;5110214;27;34559;-75
2022/07/13 02:10:49;;;;;;;0.90;0.90;;;18.20;8.20;;;;;;5144615;27;34145;-75
2022/07/13 02:13:15;;;;;;;1.20;1.10;;;18.10;8.20;;;;;;5144051;27;35758;-75
2022/07/13 02:15:43;;;;;;;1.58;1.20;;;18.20;8.20;;;;;;5144056;27;34537;-75
2022/07/13 02:18:09;;;;;;;2.92;1.05;;;18.10;8.60;;;;;;5109190;27;34275;-75
2022/07/13 02:20:35;;;;;;;1.00;0.80;;;18.10;8.40;;;;;;5144018;27;34556;-75
2022/07/13 02:23:02;;;;;;;1.55;1.00;;;18.10;8.40;;;;;;5143739;27;35661;-75
2022/07/13 02:25:28;;;;;;;1.13;1.02;;;18.10;8.70;;;;;;5109708;27;34319;-75
2022/07/13 02:27:54;;;;;;;1.30;1.20;;;18.00;8.60;;;;;;5040605;28;34124;-75
2022/07/13 02:30:20;;;;;;;1.17;1.08;;;18.00;8.70;;;;;;5144274;27;34526;-75
2022/07/13 02:32:46;;;;;;;1.00;0.90;;;18.00;8.60;;;;;;5143704;27;35525;-75
2022/07/13 02:35:13;;;;;;;1.50;0.95;;;18.00;8.80;;;;;;5144055;27;34072;-75
2022/07/13 02:37:40;;;;;;;1.20;1.10;;;18.00;8.70;;;;;;5109007;27;34115;-75
2022/07/13 02:40:09;;;;;;;2.75;1.30;;;18.00;8.80;;;;;;5144305;27;34319;-75
2022/07/13 02:42:35;;;;;;;1.63;1.00;;;18.00;8.90;;;;;;5143124;27;36916;-75
2022/07/13 02:45:01;;;;;;;2.10;1.30;;;17.90;9.00;;;;;;5115973;27;34695;-75
2022/07/13 02:47:27;;;;;;;1.65;1.23;;;17.90;9.00;;;;;;5132742;27;34148;-75
2022/07/13 02:49:53;;;;;;;0.90;0.90;;;17.90;9.10;;;;;;5116234;27;34395;-76
2022/07/13 02:52:18;;;;;;;1.20;1.10;;;17.90;9.10;;;;;;5133526;27;35639;-75
2022/07/13 02:54:44;;;;;;;1.23;1.10;;;17.90;9.10;;;;;;5132806;27;34209;-75
2022/07/13 02:57:10;;;;;;;1.13;1.08;;;17.90;9.20;;;;;;5133359;27;34109;-75
2022/07/13 02:59:37;;;;;;;2.42;1.23;;;17.90;9.20;;;;;;5063089;28;34237;-75
2022/07/13 03:02:04;;;;;;;2.83;1.20;;;17.90;9.30;;;;;;5115582;27;35766;-75
2022/07/13 03:04:31;;;;;;;2.00;0.93;;;18.00;9.40;;;;;;5132561;27;34175;-75
2022/07/13 03:06:57;;;;;;;2.47;1.00;;;18.00;9.20;;;;;;5132922;27;34184;-75
2022/07/13 03:09:23;;;;;;;1.25;1.15;;;18.00;9.30;;;;;;5132863;27;34104;-75
2022/07/13 03:11:50;;;;;;;1.05;1.00;;;18.00;9.40;;;;;;5132764;27;36368;-75
2022/07/13 03:14:16;;;;;;;1.30;1.08;;;17.90;9.50;;;;;;5132897;27;34047;-75
2022/07/13 03:16:42;;;;;;;1.20;1.10;;;18.00;9.60;;;;;;5132684;27;35188;-75
2022/07/13 03:19:09;;;;;;;1.30;1.20;;;18.00;9.60;;;;;;5132871;27;34357;-75
2022/07/13 03:21:35;;;;;;;0.82;0.82;;;18.00;9.70;;;;;;5115249;27;35656;-75
2022/07/13 03:24:01;;;;;;;1.75;1.27;;;17.90;9.80;;;;;;5115704;27;34305;-75
2022/07/13 03:26:28;;;;;;;1.02;1.00;;;17.90;9.90;;;;;;5063175;28;34243;-76
2022/07/13 03:28:54;;;;;;;1.73;1.25;;;17.90;9.90;;;;;;5132989;27;34155;-75
2022/07/13 03:31:19;;;;;;;2.17;1.50;;;17.90;9.90;;;;;;5132516;27;35964;-75
2022/07/13 03:33:46;;;;;;;2.03;1.00;;;17.90;9.90;;;;;;5062143;28;34068;-75
2022/07/13 03:36:12;;;;;;;1.52;1.20;;;17.90;10.00;;;;;;5150265;27;34166;-75
2022/07/13 03:38:38;;;;;;;1.00;1.00;;;17.90;10.00;;;;;;5132509;27;34157;-75
2022/07/13 03:41:04;;;;;;;1.20;1.10;;;17.90;10.10;;;;;;5132326;27;35843;-75
2022/07/13 03:43:31;;;;;;;2.05;1.15;;;17.90;10.10;;;;;;5160995;27;34291;-75
2022/07/13 03:45:57;;;;;;;1.13;0.90;;;17.90;10.20;;;;;;5146737;27;34150;-75
2022/07/13 03:48:23;;;;;;;1.30;1.20;;;17.90;10.20;;;;;;5146722;27;34066;-75
2022/07/13 03:50:49;;;;;;;1.63;1.17;;;17.90;10.30;;;;;;5111509;27;34151;-75
2022/07/13 03:53:15;;;;;;;1.33;1.00;;;17.90;10.20;;;;;;5146640;27;34101;-75
2022/07/13 03:55:42;;;;;;;5.70;1.30;;;17.80;10.30;;;;;;5042273;28;34065;-75
2022/07/13 03:58:10;;;;;;;3.90;1.30;;;17.80;10.30;;;;;;5043027;28;34212;-75
2022/07/13 04:00:37;;;;;;;0.90;0.90;;;17.70;10.30;;;;;;5145950;27;36400;-75
2022/07/13 04:03:03;;;;;;;1.30;1.20;;;17.70;10.30;;;;;;5160202;27;34294;-75
2022/07/13 04:05:29;;;;;;;2.22;1.20;;;17.70;10.40;;;;;;5108852;27;34011;-75
2022/07/13 04:07:55;;;;;;;1.70;1.20;;;17.60;10.40;;;;;;5132368;27;34003;-75
2022/07/13 04:10:21;;;;;;;2.13;1.45;;;17.50;10.40;;;;;;5078349;27;36655;-75
2022/07/13 04:12:48;;;;;;;3.72;1.20;;;17.50;10.50;;;;;;5046428;28;34136;-75
2022/07/13 04:15:15;;;;;;;1.25;1.10;;;17.50;10.70;;;;;;5132230;27;34175;-75
2022/07/13 04:17:43;;;;;;;2.17;1.30;;;17.50;10.80;;;;;;5044910;28;34106;-75
2022/07/13 04:20:10;;;;;;;3.05;1.50;;;17.40;10.80;;;;;;5024330;28;36442;-74
2022/07/13 04:22:37;;;;;;;1.15;1.05;;;17.40;10.90;;;;;;5024531;28;34203;-75
2022/07/13 04:25:04;;;;;;;3.38;1.48;;;17.40;10.90;;;;;;5078194;27;34711;-75
2022/07/13 04:27:30;;;;;;;1.75;1.50;;;17.40;11.10;;;;;;5131853;27;34519;-75
2022/07/13 04:29:56;;;;;;;1.98;1.33;;;17.40;11.00;;;;;;5131214;27;35670;-75
2022/07/13 04:32:22;;;;;;;1.20;1.10;;;17.40;11.10;;;;;;5131500;27;34190;-75
2022/07/13 04:34:48;;;;;;;1.33;1.10;;;17.40;11.10;;;;;;5113813;27;34269;-75
2022/07/13 04:37:14;;;;;;;3.67;1.38;;;17.50;11.20;;;;;;5005504;28;34505;-75
2022/07/13 04:39:40;;;;;;;1.30;1.20;;;17.50;11.10;;;;;;5081909;27;35703;-75
2022/07/13 04:42:06;;;;;;;1.58;1.23;;;17.60;11.10;;;;;;5111194;27;34227;-74
2022/07/13 04:44:32;;;;;;;1.30;1.20;;;17.60;11.00;;;;;;5093629;27;34224;-75
2022/07/13 04:46:58;;;;;;;2.58;1.33;;;17.70;11.10;;;;;;5042301;28;34155;-75
2022/07/13 04:49:24;;;;;;;4.18;1.38;;;17.80;11.00;;;;;;5093787;27;35510;-75
2022/07/13 04:52:08;;;;;;;1.73;1.30;;;17.90;11.50;;;;;;5111012;27;34143;-75
2022/07/13 04:54:34;;;;;;;3.20;1.13;;;18.00;13.30;;;;;;5101014;27;34204;-75
2022/07/13 04:57:00;;;;;;;2.13;1.20;;;18.00;10.80;;;;;;5100602;27;34303;-75
2022/07/13 04:59:26;;;;;;;2.95;1.58;;;18.10;10.70;;;;;;5127625;27;36397;-75
2022/07/13 05:01:53;;;;;;;1.40;1.30;;;18.30;10.70;;;;;;5093536;27;34144;-75
2022/07/13 05:04:19;;;;;;;2.35;1.33;;;18.40;10.60;;;;;;5093625;27;34440;-75
2022/07/13 05:06:45;;;;;;;3.35;1.45;;;18.50;10.50;;;;;;5145186;27;34042;-75
2022/07/13 05:09:11;;;;;;;1.77;1.20;;;18.60;10.30;;;;;;5098826;27;35728;-75
2022/07/13 05:11:37;;;;;;;7.22;1.70;;;18.70;10.20;;;;;;5127408;27;34183;-75
2022/07/13 05:14:02;;;;;;;3.13;1.60;;;18.90;10.10;;;;;;5127753;27;34496;-75
2022/07/13 05:16:28;;;;;;;2.28;1.63;;;19.00;9.90;;;;;;5093410;27;34454;-74
2022/07/13 05:18:56;;;;;;;2.53;1.58;;;19.10;9.90;;;;;;5110294;27;35001;-75
2022/07/13 05:21:22;;;;;;;1.40;1.30;;;19.20;9.70;;;;;;5093384;27;34272;-74
2022/07/13 05:23:48;;;;;;;1.60;1.50;;;19.30;9.60;;;;;;5122565;27;34166;-75
2022/07/13 05:26:14;;;;;;;1.83;1.50;;;19.50;9.40;;;;;;5128117;27;34149;-74
2022/07/13 05:28:40;;;;;;;1.27;1.17;;;19.70;9.10;;;;;;5120709;27;35316;-75
2022/07/13 05:31:05;;;;;;;1.60;1.50;;;19.80;8.80;;;;;;5131006;27;34025;-75
2022/07/13 05:33:31;;;;;;;1.33;1.23;;;20.00;8.60;;;;;;5130663;27;34096;-75
2022/07/13 05:35:58;;;;;;;5.30;1.30;;;20.10;8.20;;;;;;5116535;27;34119;-75
2022/07/13 05:38:24;;;;;;;1.75;1.45;;;20.20;8.00;;;;;;5127864;27;35670;-75
2022/07/13 05:40:50;;;;;;;1.45;1.35;;;20.30;7.90;;;;;;5145064;27;34187;-75
2022/07/13 05:43:16;;;;;;;2.67;1.58;;;20.30;7.90;;;;;;5142190;27;34284;-75
2022/07/13 05:45:41;;;;;;;1.33;1.23;;;20.30;7.90;;;;;;5123861;27;34408;-75
2022/07/13 05:48:08;;;;;;;4.60;1.90;;;20.40;7.90;;;;;;5123856;27;35648;-75
2022/07/13 05:50:34;;;;;;;1.98;1.20;;;20.50;8.10;;;;;;5145126;27;34095;-75
2022/07/13 05:53:00;;;;;;;1.27;1.17;;;20.70;8.00;;;;;;5127242;27;34305;-75
2022/07/13 05:55:26;;;;;;;1.50;1.40;;;20.80;7.70;;;;;;5144785;27;34148;-75
2022/07/13 05:57:52;;;;;;;1.85;1.30;;;21.00;7.40;;;;;;5145360;27;35002;-75
2022/07/13 06:00:17;;;;;;;2.08;1.50;;;21.00;6.90;;;;;;5144005;27;34248;-75
2022/07/13 06:02:43;;;;;;;2.63;1.20;;;21.10;6.80;;;;;;5145086;27;34244;-75
2022/07/13 06:05:10;;;;;;;1.40;1.30;;;21.10;6.80;;;;;;5129063;27;34327;-74
2022/07/13 06:07:36;;;;;;;4.13;1.95;;;21.20;6.70;;;;;;5123250;27;36635;-74
2022/07/13 06:10:04;;;;;;;4.10;1.80;;;21.30;6.80;;;;;;5124974;27;35271;-74
2022/07/13 06:12:30;;;;;;;2.72;1.35;;;21.40;6.90;;;;;;5124351;27;34052;-74
2022/07/13 06:14:56;;;;;;;2.70;1.23;;;21.60;6.70;;;;;;5106738;27;34205;-74
2022/07/13 06:17:23;;;;;;;1.58;1.48;;;21.70;7.00;;;;;;5124509;27;35024;-75
2022/07/13 06:19:49;;;;;;;1.60;1.30;;;21.80;6.40;;;;;;5106660;27;34273;-75
2022/07/13 06:22:16;;;;;;;8.63;1.30;;;21.80;6.00;;;;;;5105927;27;34213;-75
2022/07/13 06:24:42;;;;;;;1.48;1.38;;;21.90;5.70;;;;;;5123386;27;34171;-75
2022/07/13 06:27:09;;;;;;;1.55;1.40;;;22.00;5.70;;;;;;5123205;27;35606;-75
2022/07/13 06:29:34;;;;;;;1.50;1.40;;;22.10;5.70;;;;;;5109565;27;34395;-74
2022/07/13 06:32:00;;;;;;;1.27;1.17;;;22.30;5.50;;;;;;5120476;27;34167;-75
2022/07/13 06:34:26;;;;;;;1.85;1.15;;;22.40;4.80;;;;;;5103238;27;34265;-75
2022/07/13 06:36:52;;;;;;;1.40;1.30;;;22.50;4.30;;;;;;5108964;27;35936;-75
2022/07/13 06:39:18;;;;;;;2.05;1.20;;;22.60;4.10;;;;;;5109387;27;35110;-75
2022/07/13 06:41:45;;;;;;;3.78;1.25;;;22.70;4.20;;;;;;5091247;27;34274;-75
2022/07/13 06:44:11;;;;;;;6.53;1.73;;;22.90;4.00;;;;;;5126588;27;34437;-75
2022/07/13 06:46:38;;;;;;;4.07;1.55;;;23.00;3.90;;;;;;5123871;27;35578;-75
2022/07/13 06:49:04;;;;;;;3.60;1.75;;;23.10;3.80;;;;;;5093805;28;34219;-75
2022/07/13 06:51:30;;;;;;;2.90;1.50;;;23.20;3.70;;;;;;5129238;27;34168;-74
2022/07/13 06:53:57;;;;;;;4.95;1.42;;;23.30;3.60;;;;;;5131429;27;34595;-75
2022/07/13 06:56:24;;;;;;;1.52;1.42;;;23.40;3.40;;;;;;5143308;27;35402;-75
2022/07/13 06:58:50;;;;;;;1.98;1.60;;;23.50;3.30;;;;;;5093452;27;34326;-75
2022/07/13 07:01:16;;;;;;;5.95;1.63;;;23.60;3.20;;;;;;5101391;27;34296;-75
2022/07/13 07:03:42;;;;;;;1.88;1.20;;;23.70;3.10;;;;;;5051812;27;34082;-75
2022/07/13 07:06:08;;;;;;;2.33;1.42;;;23.80;3.20;;;;;;5108369;27;35953;-75
2022/07/13 07:08:35;;;;;;;3.47;1.33;;;23.90;3.20;;;;;;5092725;27;34103;-75
2022/07/13 07:11:01;;;;;;;2.03;1.30;;;24.00;3.10;;;;;;5123162;27;34155;-75
2022/07/13 07:13:26;;;;;;;1.10;1.00;;;24.10;3.10;;;;;;5105448;27;34430;-75
2022/07/13 07:15:53;;;;;;;4.38;1.40;;;24.10;2.90;;;;;;5104808;27;35641;-75
2022/07/13 07:18:21;;;;;;;1.45;1.35;;;24.30;2.70;;;;;;5122511;27;34288;-75
2022/07/13 07:20:48;;;;;;;1.45;1.35;;;24.30;2.40;;;;;;5128541;27;34175;-75
2022/07/13 07:23:15;;;;;;;1.50;1.27;;;24.40;2.20;;;;;;5129124;27;34503;-76
2022/07/13 07:25:40;;;;;;;4.53;1.50;;;24.50;2.20;;;;;;5129327;27;35573;-75
2022/07/13 07:28:07;;;;;;;2.17;1.50;;;24.60;1.90;;;;;;5111928;27;34041;-75
2022/07/13 07:30:34;;;;;;;2.38;1.35;;;24.60;1.60;;;;;;5127033;27;34224;-75
2022/07/13 07:33:00;;;;;;;1.73;1.30;;;24.60;1.50;;;;;;5024272;28;34273;-75
2022/07/13 07:35:26;;;;;;;1.70;1.58;;;24.50;1.60;;;;;;5024627;28;35643;-75
2022/07/13 07:37:52;;;;;;;2.45;1.35;;;24.60;1.90;;;;;;5041481;28;34154;-75
2022/07/13 07:40:18;;;;;;;1.90;1.33;;;24.70;1.70;;;;;;5080535;27;34174;-75
2022/07/13 07:42:45;;;;;;;3.38;1.40;;;24.80;1.80;;;;;;5127931;27;34027;-75
2022/07/13 07:45:11;;;;;;;2.22;1.20;;;24.90;1.70;;;;;;5111583;27;35632;-75
2022/07/13 07:47:38;;;;;;;2.72;1.20;;;25.00;1.60;;;;;;5146192;27;34006;-75
2022/07/13 07:50:05;;;;;;;3.60;1.50;;;25.10;1.30;;;;;;5157765;27;34432;-75
2022/07/13 07:52:31;;;;;;;1.50;1.40;;;25.10;1.00;;;;;;5129638;27;34364;-75
2022/07/13 07:54:57;;;;;;;3.80;1.30;;;25.20;1.00;;;;;;5094021;27;35594;-74
2022/07/13 07:57:23;;;;;;;1.48;1.30;;;25.20;1.00;;;;;;5094109;27;34439;-75
2022/07/13 07:59:49;;;;;;;2.15;1.45;;;25.20;1.00;;;;;;5126271;27;34170;-75
2022/07/13 08:02:15;;;;;;;4.75;1.23;;;25.30;1.00;;;;;;5132332;27;33996;-75
2022/07/13 08:04:41;;;;;;;2.17;1.23;;;25.40;1.00;;;;;;5131776;27;35568;-75
2022/07/13 08:07:07;;;;;;;2.65;1.50;;;25.40;1.00;;;;;;5132320;27;34029;-75
2022/07/13 08:09:34;;;;;;;1.75;1.38;;;25.60;1.00;;;;;;5132143;27;34298;-75
2022/07/13 08:12:02;;;;;;;3.25;1.30;;;25.70;1.00;;;;;;5131926;27;34566;-75
2022/07/13 08:14:29;;;;;;;1.50;1.30;;;25.70;1.00;;;;;;5080160;27;36084;-75
2022/07/13 08:16:56;;;;;;;1.88;1.60;;;25.70;1.00;;;;;;5054208;27;34351;-75
2022/07/13 08:19:24;;;;;;;4.75;1.70;;;25.90;1.00;;;;;;5079999;27;34295;-75
2022/07/13 08:21:50;;;;;;;5.00;1.42;;;26.10;1.00;;;;;;5041399;28;34582;-75
2022/07/13 08:24:16;;;;;;;7.95;1.42;;;26.50;1.00;;;;;;5024502;28;35736;-76
2022/07/13 08:26:42;;;;;;;7.28;1.70;;;26.90;1.00;;;;;;5042043;28;34176;-75
2022/07/13 08:29:08;;;;;;;3.95;1.33;;;27.30;1.00;;;;;;5086669;27;34335;-75
2022/07/13 08:31:34;;;;;;;2.47;1.10;;;27.70;1.00;;;;;;5130168;27;34334;-76
2022/07/13 08:39:24;;;;;;;1.95;1.52;;;28.50;1.00;;;;;;5040813;28;34142;-75
2022/07/13 08:41:50;;;;;;;3.67;1.10;;;28.50;1.00;;;;;;5041589;28;34154;-76
2022/07/13 08:44:16;;;;;;;5.20;1.30;;;28.40;1.00;;;;;;5138844;27;35011;-75
2022/07/13 08:46:43;;;;;;;2.25;1.33;;;28.30;1.00;;;;;;5106208;27;34424;-75
2022/07/13 08:49:09;;;;;;;2.38;1.60;;;28.20;1.00;;;;;;5041515;27;34221;-75
2022/07/13 08:51:36;;;;;;;5.28;1.40;;;28.20;1.00;;;;;;5041053;28;34263;-76
2022/07/13 08:54:04;;;;;;;1.20;1.10;;;28.20;1.00;;;;;;5041458;28;34207;-77
2022/07/13 08:56:32;;;;;;;5.25;1.35;;;28.40;1.00;;;;;;5041370;28;34105;-76
2022/07/13 08:58:59;;;;;;;4.68;1.40;;;28.50;1.00;;;;;;5041098;28;34206;-76
2022/07/13 09:01:25;;;;;;;1.70;1.25;;;28.80;1.00;;;;;;5041244;28;34075;-76
2022/07/13 09:03:51;;;;;;;2.08;1.20;;;29.00;1.00;;;;;;5042156;28;34463;-76
2022/07/13 09:06:48;;;;;;;1.30;1.20;;;29.10;1.00;;;;;;5041740;28;34145;-76
2022/07/13 09:09:31;;;;;;;1.10;1.00;;;29.10;1.00;;;;;;5040866;28;34127;-76
2022/07/13 09:12:16;;;;;;;1.88;1.10;;;29.00;1.00;;;;;;5112557;27;34534;-76
2022/07/13 09:14:49;;;;;;;6.18;1.23;;;29.00;1.00;;;;;;5140000;27;36383;-76
2022/07/13 09:17:33;;;;;;;1.40;1.23;;;29.00;1.00;;;;;;5128754;27;34319;-76
2022/07/13 09:20:04;;;;;;;2.92;1.42;;;28.90;1.00;;;;;;5145518;27;34458;-76
2022/07/13 09:22:30;;;;;;;2.25;1.20;;;29.00;1.00;;;;;;5142944;27;34197;-76
2022/07/13 09:24:57;;;;;;;3.25;1.00;;;29.30;1.00;;;;;;5110131;27;35490;-76
2022/07/13 09:27:23;;;;;;;1.38;0.95;;;29.60;1.00;;;;;;5109974;27;34415;-77
2022/07/13 09:29:49;;;;;;;0.90;0.85;;;29.90;1.00;;;;;;5128185;27;34291;-77
2022/07/13 09:32:15;;;;;;;1.33;1.08;;;30.40;1.00;;;;;;5128215;27;34610;-77
2022/07/13 09:34:47;;;;;;;2.67;1.00;;;30.70;1.00;;;;;;5110785;27;36436;-76
2022/07/13 09:37:16;;;;;;;1.95;0.73;;;30.80;1.00;;;;;;5112291;27;34118;-77
2022/07/13 09:39:59;;;;;;;2.35;0.70;;;31.00;1.00;;;;;;5051372;28;34242;-79
2022/07/13 09:42:28;;;;;;;0.60;0.60;;;31.40;1.00;;;;;;5038400;28;34020;-77
2022/07/13 09:47:41;;;;;;;1.05;0.70;;;32.00;1.00;;;;;;5121152;27;34364;-77
2022/07/13 09:50:07;;;;;;;0.73;0.73;;;32.20;1.00;;;;;;5111199;27;34222;-79
2022/07/13 09:52:34;;;;;;;2.85;0.80;;;32.40;1.00;;;;;;5112675;27;35234;-80
2022/07/13 09:55:04;;;;;;;1.42;0.80;;;32.60;1.00;;;;;;5146405;27;35854;-79
2022/07/13 09:57:33;;;;;;;2.05;0.65;;;32.70;1.00;;;;;;5145083;27;34286;-78
2022/07/13 10:00:00;;;;;;;2.80;0.80;;;32.80;1.00;;;;;;5110628;27;34033;-77
2022/07/13 10:02:26;;;;;;;0.70;0.70;;;33.00;1.00;;;;;;5090249;28;34136;-79
2022/07/13 10:04:56;;;;;;;1.05;0.80;;;33.10;1.00;;;;;;5105938;27;35656;-78
2022/07/13 10:07:23;;;;;;;0.60;0.60;;;33.20;1.00;;;;;;5127980;27;34150;-77
2022/07/13 10:09:49;;;;;;;1.20;0.60;;;33.40;1.00;;;;;;5110729;27;34499;-77
2022/07/13 10:12:15;;;;;;;0.70;0.70;;;33.50;1.00;;;;;;5111995;27;34154;-79
2022/07/13 10:14:42;;;;;;;1.70;0.77;;;33.50;1.00;;;;;;5128603;27;35831;-77
2022/07/13 10:17:11;;;;;;;0.70;0.70;;;33.50;1.00;;;;;;5054936;27;34232;-77
2022/07/13 10:19:43;;;;;;;0.95;0.65;;;33.60;1.00;;;;;;5048106;27;34279;-77
2022/07/13 10:22:15;;;;;;;0.80;0.80;;;33.60;1.00;;;;;;5138571;27;34151;-79
2022/07/13 10:24:58;;;;;;;1.88;0.80;;;33.70;1.00;;;;;;5151662;27;36227;-78
2022/07/13 10:27:31;;;;;;;0.38;0.38;;;33.90;1.00;;;;;;5103444;27;34179;-77
2022/07/13 10:30:00;;;;;;;0.50;0.50;;;34.10;1.00;;;;;;5063638;27;34503;-79
2022/07/13 10:32:28;;;;;;;0.88;0.65;;;34.10;1.00;;;;;;5041454;28;34274;-79
2022/07/13 10:34:59;;;;;;;1.05;0.95;;;34.30;1.00;;;;;;5024427;28;35499;-78
2022/07/13 10:37:26;;;;;;;0.70;0.70;;;34.50;1.00;;;;;;5051256;28;34119;-78
2022/07/13 10:40:10;;;;;;;2.03;0.60;;;34.50;1.00;;;;;;5114966;27;34110;-78
2022/07/13 10:43:09;;;;;;;0.77;0.68;;;34.60;1.00;;;;;;5133181;27;34174;-79
2022/07/13 10:45:38;;;;;;;1.80;0.75;;;34.80;1.00;;;;;;5131044;27;35885;-77
2022/07/13 10:48:10;;;;;;;2.25;0.55;;;34.90;1.00;;;;;;5109747;27;34094;-77
2022/07/13 10:50:46;;;;;;;1.90;0.70;;;34.90;1.00;;;;;;5126897;27;34199;-77
2022/07/13 10:53:15;;;;;;;3.60;0.70;;;35.00;1.00;;;;;;5097855;27;34502;-79
2022/07/13 10:55:48;;;;;;;0.95;0.73;;;35.00;1.00;;;;;;5090711;27;35972;-77
2022/07/13 10:58:49;;;;;;;0.82;0.70;;;35.10;1.00;;;;;;5111867;27;34366;-78
2022/07/13 11:01:33;;;;;;;0.70;0.70;;;35.00;1.00;;;;;;5033395;28;34186;-77
2022/07/13 11:03:59;;;;;;;0.73;0.73;;;35.00;1.00;;;;;;5158993;27;34400;-80
2022/07/13 11:06:25;;;;;;;2.45;0.85;;;35.10;1.00;;;;;;5097415;27;34450;-79
2022/07/13 11:09:11;;;;;;;1.25;0.85;;;35.20;1.00;;;;;;5115373;27;34242;-78
2022/07/13 11:11:48;;;;;;;0.93;0.85;;;35.40;1.00;;;;;;5128530;27;34045;-79
2022/07/13 11:14:44;;;;;;;22.27;1.67;;;35.60;1.00;;;;;;5115658;27;34375;-78
2022/07/13 11:17:13;;;;;;;0.80;0.80;;;35.80;1.00;;;;;;5113376;27;35804;-77
2022/07/13 11:19:57;;;;;;;0.90;0.85;;;35.70;1.00;;;;;;5061856;27;34137;-78
2022/07/13 11:22:25;;;;;;;1.80;0.90;;;35.70;1.00;;;;;;5040307;28;34083;-78
2022/07/13 11:28:04;;;;;;;2.45;0.70;;;36.00;1.00;;;;;;5061807;27;34142;-79
2022/07/13 11:30:34;;;;;;;1.02;0.80;;;36.10;1.00;;;;;;5130331;27;34281;-78
2022/07/13 11:33:00;;;;;;;0.70;0.68;;;36.00;1.00;;;;;;5108724;27;34090;-77
2022/07/13 11:35:26;;;;;;;0.85;0.60;;;36.10;1.00;;;;;;5118037;27;34098;-78
2022/07/13 11:37:53;;;;;;;1.33;0.68;;;36.00;1.00;;;;;;5081055;27;35765;-79
2022/07/13 11:40:29;;;;;;;4.15;0.70;;;36.10;1.00;;;;;;5131799;27;34363;-79
2022/07/13 11:42:58;;;;;;;5.18;0.80;;;36.10;1.00;;;;;;5045797;28;34258;-79
2022/07/13 11:45:27;;;;;;;0.68;0.60;;;36.10;1.00;;;;;;5101721;27;34115;-78
2022/07/13 11:47:58;;;;;;;2.08;0.70;;;36.10;1.00;;;;;;5144727;27;35628;-81
2022/07/13 11:50:39;;;;;;;1.80;0.77;;;36.20;1.00;;;;;;5109724;27;34313;-77
2022/07/13 11:53:06;;;;;;;1.88;0.90;;;36.10;1.00;;;;;;5042250;28;34415;-77
2022/07/13 11:55:32;;;;;;;1.17;0.60;;;36.20;1.00;;;;;;5116469;27;34131;-78
2022/07/13 11:57:59;;;;;;;2.67;0.60;;;36.30;1.00;;;;;;5116380;27;35441;-79
2022/07/13 12:00:25;;;;;;;9.90;1.10;;;36.60;1.00;;;;;;5095236;27;34132;-78
2022/07/13 12:02:52;;;;;;;1.20;0.65;;;36.50;1.00;;;;;;5131604;27;34265;-79
2022/07/13 12:05:27;;;;;;;0.80;0.70;;;36.40;1.00;;;;;;5108212;27;34378;-77
2022/07/13 12:08:03;;;;;;;0.85;0.68;;;36.50;1.00;;;;;;5118287;27;35779;-78
2022/07/13 12:10:29;;;;;;;0.70;0.70;;;36.50;1.00;;;;;;5080521;27;34109;-78
2022/07/13 12:12:56;;;;;;;1.58;0.63;;;36.40;1.00;;;;;;5134827;27;34255;-78
2022/07/13 12:15:22;;;;;;;0.68;0.50;;;36.40;1.00;;;;;;5133918;27;34285;-78
2022/07/13 12:17:48;;;;;;;1.50;0.70;;;36.40;1.00;;;;;;5133282;27;36617;-78
2022/07/13 12:20:17;;;;;;;1.58;0.80;;;36.50;1.00;;;;;;5132006;27;34225;-79
2022/07/13 12:22:56;;;;;;;0.75;0.75;;;36.50;1.00;;;;;;5117023;27;34118;-78
2022/07/13 12:25:24;;;;;;;0.50;0.50;;;36.60;1.00;;;;;;5117124;27;34068;-77
2022/07/13 12:27:53;;;;;;;2.22;0.75;;;36.60;1.00;;;;;;5123788;27;36717;-78
2022/07/13 12:30:19;;;;;;;1.50;0.90;;;36.70;1.00;;;;;;5153166;27;34129;-78
2022/07/13 12:33:02;;;;;;;0.50;0.50;;;36.50;1.00;;;;;;5131650;27;34382;-79
2022/07/13 12:35:31;;;;;;;0.68;0.68;;;36.50;1.00;;;;;;5142248;27;34494;-79
2022/07/13 12:37:58;;;;;;;1.70;0.50;;;36.60;1.00;;;;;;5163801;27;35744;-78
2022/07/13 12:40:41;;;;;;;1.45;0.50;;;36.70;1.00;;;;;;5112804;27;34393;-79
2022/07/13 12:43:24;;;;;;;1.35;0.70;;;36.70;1.00;;;;;;5117241;27;34271;-77
2022/07/13 12:45:54;;;;;;;0.65;0.65;;;36.60;1.00;;;;;;5152352;27;34693;-79
2022/07/13 12:48:22;;;;;;;0.80;0.77;;;36.40;1.00;;;;;;5126807;27;35682;-80
2022/07/13 12:51:06;;;;;;;0.70;0.60;;;36.30;1.00;;;;;;5136637;27;34177;-77
2022/07/13 12:53:49;;;;;;;0.57;0.57;;;36.20;1.00;;;;;;5130956;27;34263;-80
2022/07/13 12:56:17;;;;;;;1.83;0.77;;;36.10;1.00;;;;;;5113179;27;34031;-78
2022/07/13 12:58:47;;;;;;;0.60;0.60;;;36.20;1.00;;;;;;5112535;27;35733;-77
2022/07/13 13:01:29;;;;;;;1.13;0.75;;;36.10;1.00;;;;;;5096494;27;34060;-79
2022/07/13 13:03:56;;;;;;;0.80;0.80;;;36.00;1.00;;;;;;5110149;27;34168;-80
2022/07/13 13:06:22;;;;;;;0.75;0.70;;;36.20;1.00;;;;;;5101099;27;34251;-80
2022/07/13 13:08:48;;;;;;;2.75;0.70;;;36.10;1.00;;;;;;5112779;27;35880;-78
2022/07/13 13:11:13;;;;;;;1.05;0.80;;;36.00;1.00;;;;;;5119954;27;34360;-77